createdAt,value
2022-11-27T00:01:28.122Z,7.78
2022-11-27T00:03:56.220Z,7.82
2022-11-27T00:06:26.829Z,7.38
2022-11-27T00:08:55.725Z,7.25
2022-11-27T00:11:24.369Z,7.13
2022-11-27T00:13:52.029Z,6.80
2022-11-27T00:16:20.952Z,6.85
2022-11-27T00:18:48.632Z,7.53
2022-11-27T00:21:26.366Z,7.22
2022-11-27T00:23:54.943Z,7.57
2022-11-27T00:26:22.263Z,6.53
2022-11-27T00:28:49.574Z,7.30
2022-11-27T00:31:29.561Z,6.68
2022-11-27T00:34:01.331Z,6.90
2022-11-27T00:36:29.786Z,6.63
2022-11-27T00:38:56.693Z,6.22
2022-11-27T00:41:30.566Z,6.18
2022-11-27T00:43:57.634Z,6.28
2022-11-27T00:46:29.102Z,5.90
2022-11-27T00:48:57.683Z,6.18
2022-11-27T00:51:25.526Z,6.25
2022-11-27T00:53:53.660Z,5.88
2022-11-27T00:56:26.006Z,6.30
2022-11-27T01:01:24.378Z,5.00
2022-11-27T01:03:51.632Z,5.30
2022-11-27T01:06:20.181Z,5.32
2022-11-27T01:08:48.256Z,4.97
2022-11-27T01:11:20.850Z,5.03
2022-11-27T01:13:48.484Z,5.53
2022-11-27T01:16:18.420Z,4.68
2022-11-27T01:18:47.221Z,5.55
2022-11-27T01:21:16.291Z,5.38
2022-11-27T01:23:43.479Z,5.63
2022-11-27T01:26:12.243Z,5.07
2022-11-27T01:28:42.330Z,4.95
2022-11-27T01:31:16.700Z,5.22
2022-11-27T01:33:45.176Z,5.40
2022-11-27T01:36:14.113Z,5.45
2022-11-27T01:38:41.049Z,6.00
2022-11-27T01:41:17.615Z,5.72
2022-11-27T01:43:49.277Z,5.75
2022-11-27T01:46:36.233Z,5.15
2022-11-27T01:49:24.481Z,4.65
2022-11-27T01:52:13.088Z,4.40
2022-11-27T01:54:54.201Z,4.40
2022-11-27T01:57:27.229Z,4.85
2022-11-27T01:59:56.887Z,4.90
2022-11-27T02:02:24.089Z,6.07
2022-11-27T02:04:51.134Z,4.40
2022-11-27T02:07:18.098Z,4.13
2022-11-27T02:09:44.993Z,4.30
2022-11-27T02:12:27.656Z,4.95
2022-11-27T02:15:13.292Z,4.50
2022-11-27T02:17:40.178Z,3.97
2022-11-27T02:20:25.158Z,4.35
2022-11-27T02:22:54.830Z,4.78
2022-11-27T02:25:57.053Z,5.35
2022-11-27T02:28:59.041Z,5.35
2022-11-27T02:31:37.209Z,4.63
2022-11-27T02:34:23.298Z,5.63
2022-11-27T02:37:00.131Z,4.78
2022-11-27T02:39:35.199Z,4.85
2022-11-27T02:42:12.637Z,4.55
2022-11-27T02:44:46.299Z,4.72
2022-11-27T02:47:15.372Z,4.60
2022-11-27T02:49:44.335Z,5.30
2022-11-27T02:52:13.356Z,4.95
2022-11-27T02:54:42.234Z,4.22
2022-11-27T02:57:12.151Z,4.05
2022-11-27T02:59:42.656Z,4.53
2022-11-27T03:02:15.080Z,4.25
2022-11-27T03:04:47.947Z,4.28
2022-11-27T03:07:47.959Z,4.47
2022-11-27T03:10:24.562Z,4.45
2022-11-27T03:12:51.959Z,4.30
2022-11-27T03:15:20.582Z,4.80
2022-11-27T03:18:15.759Z,4.65
2022-11-27T03:20:45.050Z,4.32
2022-11-27T03:23:11.973Z,4.53
2022-11-27T03:25:38.844Z,5.03
2022-11-27T03:28:09.785Z,9.07
2022-11-27T03:30:36.646Z,11.70
2022-11-27T03:33:03.517Z,4.05
2022-11-27T03:35:31.972Z,6.18
2022-11-27T03:37:58.856Z,6.45
2022-11-27T03:40:33.462Z,7.43
2022-11-27T03:43:25.611Z,5.95
2022-11-27T03:46:07.022Z,6.45
2022-11-27T03:48:55.314Z,4.95
2022-11-27T03:51:27.709Z,3.55
2022-11-27T03:54:09.874Z,3.50
2022-11-27T03:56:43.717Z,4.13
2022-11-27T03:59:28.652Z,3.05
2022-11-27T04:01:55.884Z,3.45
2022-11-27T04:04:22.832Z,3.47
2022-11-27T04:06:49.940Z,4.03
2022-11-27T04:09:16.740Z,4.35
2022-11-27T04:11:43.675Z,4.97
2022-11-27T04:14:10.558Z,4.28
2022-11-27T04:16:37.512Z,5.00
2022-11-27T04:19:04.392Z,4.50
2022-11-27T04:21:31.265Z,5.47
2022-11-27T04:23:58.045Z,6.00
2022-11-27T04:26:25.080Z,5.35
2022-11-27T04:28:51.925Z,5.03
2022-11-27T04:31:18.856Z,4.82
2022-11-27T04:33:45.801Z,5.05
2022-11-27T04:36:12.622Z,4.07
2022-11-27T04:38:39.443Z,4.85
2022-11-27T04:41:06.348Z,4.80
2022-11-27T04:43:33.212Z,5.43
2022-11-27T04:46:00.104Z,4.45
2022-11-27T04:48:27.033Z,4.20
2022-11-27T04:50:55.834Z,3.55
2022-11-27T04:53:22.782Z,4.38
2022-11-27T04:55:51.549Z,3.58
2022-11-27T04:58:18.581Z,3.70
2022-11-27T05:00:45.504Z,3.65
2022-11-27T05:03:12.576Z,3.78
2022-11-27T05:05:39.684Z,4.10
2022-11-27T05:08:06.534Z,4.30
2022-11-27T05:10:33.395Z,4.00
2022-11-27T05:13:00.223Z,4.88
2022-11-27T05:15:27.045Z,4.95
2022-11-27T05:17:53.946Z,4.95
2022-11-27T05:20:20.795Z,4.40
2022-11-27T05:22:49.729Z,4.35
2022-11-27T05:25:16.661Z,3.72
2022-11-27T05:27:43.567Z,5.13
2022-11-27T05:30:10.676Z,4.13
2022-11-27T05:32:37.876Z,4.25
2022-11-27T05:35:04.922Z,4.20
2022-11-27T05:37:31.740Z,6.57
2022-11-27T05:39:59.094Z,10.15
2022-11-27T05:42:26.002Z,7.10
2022-11-27T05:44:58.085Z,10.43
2022-11-27T05:47:25.529Z,9.57
2022-11-27T05:49:52.450Z,11.18
2022-11-27T05:52:19.335Z,11.70
2022-11-27T05:54:46.530Z,10.70
2022-11-27T05:57:13.395Z,13.50
2022-11-27T05:59:40.348Z,8.80
2022-11-27T06:02:07.430Z,4.90
2022-11-27T06:04:34.790Z,7.22
2022-11-27T06:07:01.853Z,5.70
2022-11-27T06:09:28.897Z,6.28
2022-11-27T06:11:55.818Z,6.93
2022-11-27T06:14:22.697Z,5.28
2022-11-27T06:16:50.054Z,4.85
2022-11-27T06:19:17.062Z,5.18
2022-11-27T06:21:43.958Z,5.50
2022-11-27T06:24:11.120Z,4.60
2022-11-27T06:26:38.044Z,5.20
2022-11-27T06:29:05.237Z,4.63
2022-11-27T06:31:33.684Z,5.78
2022-11-27T06:34:01.187Z,6.15
2022-11-27T06:36:34.691Z,5.57
2022-11-27T06:39:04.559Z,6.07
2022-11-27T06:41:32.492Z,6.45
2022-11-27T06:44:00.739Z,9.00
2022-11-27T06:46:28.923Z,10.27
2022-11-27T06:48:57.290Z,8.27
2022-11-27T06:51:27.113Z,10.55
2022-11-27T06:53:54.367Z,16.80
2022-11-27T06:56:24.053Z,11.15
2022-11-27T06:58:55.927Z,9.77
2022-11-27T07:01:23.927Z,5.43
2022-11-27T07:03:51.014Z,4.70
2022-11-27T07:06:23.656Z,4.55
2022-11-27T07:08:50.637Z,4.80
2022-11-27T07:11:20.637Z,5.30
2022-11-27T07:13:49.026Z,5.28
2022-11-27T07:16:17.528Z,5.10
2022-11-27T07:18:47.294Z,4.63
2022-11-27T07:21:14.254Z,4.40
2022-11-27T07:23:41.222Z,3.78
2022-11-27T07:26:10.511Z,4.32
2022-11-27T07:28:38.039Z,4.80
2022-11-27T07:31:05.006Z,3.92
2022-11-27T07:33:32.731Z,4.10
2022-11-27T07:36:05.464Z,4.93
2022-11-27T07:38:32.883Z,5.07
2022-11-27T07:41:01.926Z,4.90
2022-11-27T07:43:29.575Z,4.20
2022-11-27T07:45:57.325Z,5.00
2022-11-27T07:48:25.337Z,5.82
2022-11-27T07:50:52.226Z,4.75
2022-11-27T07:53:19.208Z,5.75
2022-11-27T07:55:46.273Z,5.35
2022-11-27T07:58:13.279Z,4.97
2022-11-27T08:00:40.339Z,4.80
2022-11-27T08:03:07.181Z,4.80
2022-11-27T08:05:35.697Z,5.15
2022-11-27T08:08:04.473Z,4.70
2022-11-27T08:10:34.877Z,4.55
2022-11-27T08:13:01.737Z,3.90
2022-11-27T08:15:28.769Z,4.65
2022-11-27T08:17:55.741Z,4.40
2022-11-27T08:20:23.162Z,4.63
2022-11-27T08:22:50.578Z,4.95
2022-11-27T08:25:18.190Z,3.88
2022-11-27T08:27:45.027Z,4.07
2022-11-27T08:30:12.088Z,4.32
2022-11-27T08:32:40.269Z,3.92
2022-11-27T08:35:08.467Z,4.00
2022-11-27T08:37:36.094Z,4.30
2022-11-27T08:40:03.895Z,4.75
2022-11-27T08:42:30.985Z,4.82
2022-11-27T08:44:57.882Z,3.63
2022-11-27T08:47:24.851Z,5.43
2022-11-27T08:49:52.634Z,4.97
2022-11-27T08:52:20.677Z,4.60
2022-11-27T08:54:47.574Z,6.05
2022-11-27T08:57:14.389Z,5.90
2022-11-27T08:59:41.375Z,4.50
2022-11-27T09:02:12.434Z,4.00
2022-11-27T09:04:39.557Z,4.35
2022-11-27T09:07:06.774Z,3.80
2022-11-27T09:09:33.661Z,4.38
2022-11-27T09:12:00.519Z,3.53
2022-11-27T09:14:27.396Z,3.80
2022-11-27T09:16:54.633Z,6.60
2022-11-27T09:19:21.815Z,4.10
2022-11-27T09:21:50.558Z,4.38
2022-11-27T09:24:17.641Z,3.95
2022-11-27T09:26:44.975Z,4.10
2022-11-27T09:29:11.917Z,3.90
2022-11-27T09:31:38.744Z,4.10
2022-11-27T09:34:06.359Z,4.10
2022-11-27T09:36:33.255Z,4.38
2022-11-27T09:39:00.491Z,4.10
2022-11-27T09:41:38.849Z,4.20
2022-11-27T09:44:14.823Z,6.05
2022-11-27T09:46:42.845Z,6.65
2022-11-27T09:49:14.747Z,8.02
2022-11-27T09:52:12.554Z,9.63
2022-11-27T09:54:57.835Z,11.32
2022-11-27T09:57:46.448Z,9.05
2022-11-27T10:00:17.736Z,7.82
2022-11-27T10:02:45.350Z,6.50
2022-11-27T10:05:29.096Z,5.82
2022-11-27T10:08:21.035Z,4.25
2022-11-27T10:10:53.930Z,4.80
2022-11-27T10:13:32.928Z,5.43
2022-11-27T10:16:15.042Z,4.70
2022-11-27T10:18:47.998Z,4.88
2022-11-27T10:21:36.070Z,4.90
2022-11-27T10:24:10.392Z,4.43
2022-11-27T10:26:41.803Z,4.15
2022-11-27T10:29:23.818Z,4.38
2022-11-27T10:31:57.421Z,4.40
2022-11-27T10:34:48.592Z,4.60
2022-11-27T10:37:29.172Z,3.58
2022-11-27T10:40:08.640Z,4.00
2022-11-27T10:42:42.221Z,4.38
2022-11-27T10:45:45.465Z,3.80
2022-11-27T10:48:13.618Z,5.10
2022-11-27T10:50:41.978Z,5.18
2022-11-27T10:53:14.786Z,4.10
2022-11-27T10:56:09.849Z,3.70
2022-11-27T10:58:58.096Z,4.40
2022-11-27T11:01:27.285Z,4.72
2022-11-27T11:04:24.646Z,3.30
2022-11-27T11:06:55.916Z,3.25
2022-11-27T11:09:30.201Z,3.53
2022-11-27T11:12:08.080Z,3.42
2022-11-27T11:14:35.018Z,3.35
2022-11-27T11:17:01.903Z,4.53
2022-11-27T11:19:35.901Z,4.00
2022-11-27T11:22:20.764Z,3.72
2022-11-27T11:24:52.676Z,5.47
2022-11-27T11:27:32.352Z,3.70
2022-11-27T11:30:02.919Z,3.65
2022-11-27T11:32:36.142Z,4.53
2022-11-27T11:35:32.804Z,3.58
2022-11-27T11:38:01.612Z,2.90
2022-11-27T11:40:33.819Z,3.03
2022-11-27T11:43:28.467Z,4.85
2022-11-27T11:46:04.570Z,2.80
2022-11-27T11:48:31.525Z,3.53
2022-11-27T11:51:01.122Z,3.38
2022-11-27T11:53:37.617Z,4.40
2022-11-27T11:56:37.999Z,4.57
2022-11-27T11:59:22.899Z,3.83
2022-11-27T12:02:02.166Z,4.40
2022-11-27T12:04:50.144Z,3.55
2022-11-27T12:07:26.228Z,3.70
2022-11-27T12:09:56.212Z,4.70
2022-11-27T12:12:56.617Z,4.00
2022-11-27T12:15:34.578Z,4.05
2022-11-27T12:18:37.436Z,4.38
2022-11-27T12:21:37.983Z,4.38
2022-11-27T12:24:07.541Z,10.98
2022-11-27T12:26:52.688Z,4.55
2022-11-27T12:29:47.250Z,4.80
2022-11-27T12:32:31.962Z,4.22
2022-11-27T12:35:10.919Z,4.80
2022-11-27T12:37:51.889Z,3.70
2022-11-27T12:40:39.938Z,3.90
2022-11-27T12:43:18.911Z,3.95
2022-11-27T12:45:51.516Z,5.80
2022-11-27T12:48:34.349Z,5.00
2022-11-27T12:51:06.554Z,4.97
2022-11-27T12:56:32.264Z,4.00
2022-11-27T12:59:12.087Z,3.40
2022-11-27T13:02:13.697Z,5.18
2022-11-27T13:04:50.022Z,4.57
2022-11-27T13:07:38.760Z,4.70
2022-11-27T13:10:32.268Z,3.53
2022-11-27T13:13:13.225Z,5.78
2022-11-27T13:15:43.118Z,4.68
2022-11-27T13:18:30.319Z,6.10
2022-11-27T13:21:04.193Z,35.15
2022-11-27T13:23:32.851Z,14.20
2022-11-27T13:26:04.384Z,12.38
2022-11-27T13:28:43.144Z,14.07
2022-11-27T13:31:24.519Z,10.20
2022-11-27T13:33:58.197Z,5.40
2022-11-27T13:36:33.366Z,4.55
2022-11-27T13:39:04.887Z,4.85
2022-11-27T13:41:41.001Z,5.53
2022-11-27T13:44:26.248Z,5.50
2022-11-27T13:46:55.949Z,4.80
2022-11-27T13:49:30.452Z,5.18
2022-11-27T13:52:20.659Z,5.68
2022-11-27T13:57:22.886Z,4.65
2022-11-27T14:00:01.039Z,4.93
2022-11-27T14:05:18.981Z,4.65
2022-11-27T14:07:48.809Z,5.07
2022-11-27T14:10:18.190Z,6.50
2022-11-27T14:13:01.051Z,6.20
2022-11-27T14:15:33.450Z,6.20
2022-11-27T14:18:21.355Z,6.40
2022-11-27T14:21:01.423Z,7.55
2022-11-27T14:23:32.854Z,6.70
2022-11-27T14:26:20.118Z,6.85
2022-11-27T14:28:52.148Z,8.65
2022-11-27T14:31:28.277Z,9.75
2022-11-27T14:36:42.656Z,7.25
2022-11-27T14:39:49.425Z,6.40
2022-11-27T14:42:39.081Z,7.00
2022-11-27T14:45:12.581Z,6.32
2022-11-27T14:47:45.598Z,6.78
2022-11-27T14:50:14.601Z,7.20
2022-11-27T14:52:47.216Z,13.90
2022-11-27T14:55:16.300Z,18.35
2022-11-27T14:57:44.358Z,18.52
2022-11-27T15:00:27.343Z,14.52
2022-11-27T15:02:54.746Z,9.10
2022-11-27T15:05:27.763Z,17.70
2022-11-27T15:07:57.643Z,14.95
2022-11-27T15:10:38.347Z,10.50
2022-11-27T15:13:08.186Z,13.18
2022-11-27T15:15:44.238Z,14.63
2022-11-27T15:18:21.930Z,13.65
2022-11-27T15:20:49.809Z,12.32
2022-11-27T15:23:28.020Z,11.32
2022-11-27T15:26:08.310Z,13.02
2022-11-27T15:28:52.681Z,13.20
2022-11-27T15:31:26.280Z,19.92
2022-11-27T15:34:14.610Z,23.77
2022-11-27T15:36:52.167Z,27.65
2022-11-27T15:39:44.167Z,20.70
2022-11-27T15:42:12.127Z,22.42
2022-11-27T15:44:40.778Z,20.27
2022-11-27T15:47:21.869Z,20.60
2022-11-27T15:49:50.036Z,21.15
2022-11-27T15:52:18.106Z,22.73
2022-11-27T15:54:46.106Z,20.05
2022-11-27T15:57:14.031Z,23.83
2022-11-27T15:59:41.817Z,23.60
2022-11-27T16:02:17.474Z,20.40
2022-11-27T16:04:45.631Z,19.30
2022-11-27T16:07:13.381Z,20.15
2022-11-27T16:09:41.290Z,18.88
2022-11-27T16:12:09.152Z,26.45
2022-11-27T16:14:37.080Z,34.97
2022-11-27T16:17:05.138Z,31.90
2022-11-27T16:19:33.050Z,26.20
2022-11-27T16:22:01.224Z,26.30
2022-11-27T16:24:29.249Z,23.33
2022-11-27T16:26:59.645Z,19.25
2022-11-27T16:29:27.500Z,16.48
2022-11-27T16:31:57.013Z,13.02
2022-11-27T16:34:25.206Z,9.57
2022-11-27T16:36:53.490Z,10.48
2022-11-27T16:39:21.360Z,7.43
2022-11-27T16:41:49.247Z,13.32
2022-11-27T16:44:18.984Z,14.02
2022-11-27T16:46:46.978Z,13.63
2022-11-27T16:49:14.951Z,12.00
2022-11-27T16:51:43.903Z,10.68
2022-11-27T16:54:13.727Z,8.07
2022-11-27T16:56:43.087Z,9.15
2022-11-27T16:59:13.311Z,9.32
2022-11-27T17:01:42.706Z,9.10
2022-11-27T17:04:18.401Z,10.27
2022-11-27T17:06:48.118Z,9.38
2022-11-27T17:09:16.271Z,11.32
2022-11-27T17:11:50.834Z,10.25
2022-11-27T17:14:20.582Z,38.67
2022-11-27T17:16:49.922Z,14.20
2022-11-27T17:19:18.758Z,9.90
2022-11-27T17:21:47.480Z,7.80
2022-11-27T17:24:16.664Z,8.90
2022-11-27T17:26:49.998Z,9.50
2022-11-27T17:29:21.802Z,8.90
2022-11-27T17:31:51.310Z,8.75
2022-11-27T17:34:20.812Z,9.05
2022-11-27T17:36:53.717Z,9.23
2022-11-27T17:39:22.134Z,12.25
2022-11-27T17:41:50.406Z,12.15
2022-11-27T17:44:18.261Z,13.52
2022-11-27T17:46:49.993Z,11.43
2022-11-27T17:49:19.729Z,18.55
2022-11-27T17:51:50.210Z,19.65
2022-11-27T17:54:21.562Z,14.95
2022-11-27T17:56:51.692Z,14.32
2022-11-27T17:59:21.384Z,15.43
2022-11-27T18:02:01.021Z,11.93
2022-11-27T18:04:31.089Z,18.27
2022-11-27T18:06:59.460Z,8.45
2022-11-27T18:09:29.738Z,11.90
2022-11-27T18:11:58.604Z,13.00
2022-11-27T18:14:26.676Z,12.32
2022-11-27T18:16:54.829Z,10.70
2022-11-27T18:19:22.993Z,11.30
2022-11-27T18:21:51.046Z,12.50
2022-11-27T18:24:23.867Z,12.35
2022-11-27T18:27:10.364Z,20.55
2022-11-27T18:29:42.051Z,22.70
2022-11-27T18:32:12.221Z,22.65
2022-11-27T18:34:41.185Z,22.85
2022-11-27T18:37:10.100Z,22.30
2022-11-27T18:39:40.171Z,23.08
2022-11-27T18:42:08.703Z,27.50
2022-11-27T18:44:44.647Z,32.33
2022-11-27T18:47:14.889Z,24.92
2022-11-27T18:49:45.864Z,24.63
2022-11-27T18:52:14.871Z,22.02
2022-11-27T18:54:44.240Z,22.00
2022-11-27T18:57:13.325Z,15.65
2022-11-27T18:59:44.803Z,17.58
2022-11-27T19:02:13.726Z,22.50
2022-11-27T19:04:44.437Z,21.23
2022-11-27T19:07:13.058Z,21.00
2022-11-27T19:09:44.114Z,18.45
2022-11-27T19:12:12.997Z,14.48
2022-11-27T19:14:41.410Z,17.73
2022-11-27T19:17:09.649Z,17.65
2022-11-27T19:20:04.447Z,19.95
2022-11-27T19:22:27.371Z,16.50
2022-11-27T19:24:57.300Z,17.05
2022-11-27T19:27:25.328Z,19.27
2022-11-27T19:29:53.370Z,17.45
2022-11-27T19:32:24.085Z,18.50
2022-11-27T19:34:52.369Z,16.48
2022-11-27T19:37:34.105Z,18.10
2022-11-27T19:40:05.739Z,17.60
2022-11-27T19:42:33.882Z,17.90
2022-11-27T19:45:02.524Z,21.65
2022-11-27T19:47:30.551Z,24.35
2022-11-27T19:49:58.413Z,20.58
2022-11-27T19:52:26.509Z,21.45
2022-11-27T19:54:54.491Z,31.23
2022-11-27T19:57:23.910Z,33.30
2022-11-27T19:59:52.070Z,30.83
2022-11-27T20:02:20.333Z,26.23
2022-11-27T20:04:48.424Z,21.10
2022-11-27T20:07:16.611Z,20.30
2022-11-27T20:09:44.957Z,19.88
2022-11-27T20:12:13.169Z,16.40
2022-11-27T20:14:41.570Z,17.13
2022-11-27T20:17:09.835Z,16.80
2022-11-27T20:19:38.941Z,13.90
2022-11-27T20:22:07.482Z,21.13
2022-11-27T20:24:44.076Z,22.02
2022-11-27T20:27:23.905Z,15.30
2022-11-27T20:29:56.135Z,22.02
2022-11-27T20:32:26.894Z,21.83
2022-11-27T20:34:57.453Z,17.55
2022-11-27T20:37:25.739Z,13.57
2022-11-27T20:39:55.266Z,13.57
2022-11-27T20:42:24.550Z,14.75
2022-11-27T20:44:55.087Z,13.85
2022-11-27T20:47:26.089Z,17.45
2022-11-27T20:49:53.955Z,18.20
2022-11-27T20:52:22.097Z,10.65
2022-11-27T20:54:50.248Z,10.25
2022-11-27T20:57:18.458Z,10.18
2022-11-27T20:59:46.498Z,10.70
2022-11-27T21:02:15.228Z,15.13
2022-11-27T21:04:48.662Z,12.75
2022-11-27T21:07:16.334Z,12.95
2022-11-27T21:09:44.044Z,13.13
2022-11-27T21:12:13.859Z,12.90
2022-11-27T21:14:41.631Z,10.93
2022-11-27T21:17:09.338Z,11.68
2022-11-27T21:19:36.837Z,11.77
2022-11-27T21:22:04.493Z,11.48
2022-11-27T21:24:32.030Z,13.88
2022-11-27T21:26:59.325Z,13.27
2022-11-27T21:29:29.330Z,10.52
2022-11-27T21:31:57.267Z,9.73
2022-11-27T21:34:25.431Z,10.20
2022-11-27T21:36:52.404Z,9.18
2022-11-27T21:39:22.669Z,8.23
2022-11-27T21:41:51.840Z,8.52
2022-11-27T21:44:20.355Z,8.25
2022-11-27T21:46:48.033Z,8.30
2022-11-27T21:49:18.441Z,9.75
2022-11-27T21:51:45.608Z,11.90
2022-11-27T21:54:15.365Z,12.50
2022-11-27T21:56:42.375Z,12.73
2022-11-27T21:59:13.257Z,14.52
2022-11-27T22:01:41.048Z,13.93
2022-11-27T22:04:08.064Z,16.40
2022-11-27T22:06:38.274Z,16.38
2022-11-27T22:09:09.321Z,16.65
2022-11-27T22:11:40.878Z,14.10
2022-11-27T22:14:08.927Z,13.75
2022-11-27T22:16:44.369Z,13.05
2022-11-27T22:19:12.660Z,14.05
2022-11-27T22:21:39.884Z,12.27
2022-11-27T22:24:07.769Z,13.07
2022-11-27T22:26:34.639Z,12.50
2022-11-27T22:29:03.076Z,13.32
2022-11-27T22:31:33.044Z,10.82
2022-11-27T22:34:00.906Z,17.58
2022-11-27T22:36:33.709Z,11.40
2022-11-27T22:39:04.153Z,13.68
2022-11-27T22:41:36.057Z,10.13
2022-11-27T22:44:08.102Z,11.15
2022-11-27T22:46:36.766Z,9.88
2022-11-27T22:49:06.817Z,9.40
2022-11-27T22:51:36.243Z,9.27
2022-11-27T22:54:04.536Z,9.18
2022-11-27T22:56:33.857Z,9.07
2022-11-27T22:59:30.360Z,9.07
2022-11-27T23:01:49.283Z,8.43
2022-11-27T23:04:17.017Z,8.43
2022-11-27T23:06:48.604Z,8.68
2022-11-27T23:09:18.159Z,11.73
2022-11-27T23:11:45.743Z,9.32
2022-11-27T23:14:12.628Z,9.60
2022-11-27T23:16:40.133Z,9.73
2022-11-27T23:19:07.207Z,11.88
2022-11-27T23:21:37.549Z,8.90
2022-11-27T23:24:05.709Z,9.45
2022-11-27T23:26:32.985Z,8.93
2022-11-27T23:29:00.097Z,9.05
2022-11-27T23:31:31.209Z,9.27
2022-11-27T23:34:03.739Z,8.98
2022-11-27T23:36:32.352Z,8.60
2022-11-27T23:39:01.223Z,9.13
2022-11-27T23:41:28.192Z,8.68
2022-11-27T23:43:55.748Z,9.73
2022-11-27T23:46:26.362Z,9.40
2022-11-27T23:48:58.478Z,9.88
2022-11-27T23:51:28.740Z,9.88
2022-11-27T23:53:55.775Z,10.02
2022-11-27T23:56:25.724Z,9.18
2022-11-27T23:58:54.708Z,9.88
